Time;durP1;ratioP1;P1;durP2;ratioP2;P2;SDS_P1;SDS_P2;PMS_P1;PMS_P2;Temp;Humidity;BMP_temperature;BMP_pressure;BME280_temperature;BME280_humidity;BME280_pressure;Samples;Min_cycle;Max_cycle;Signal;HPM_P1;HPM_P2
2024/01/15 00:01:45;;;;;;;0.55;0.40;;;4.30;88.90;;;;;;5027005;28;20084;-63
2024/01/15 00:04:11;;;;;;;;;;;4.20;88.90;;;;;;5030128;28;20033;-62
2024/01/15 00:06:36;;;;;;;1.15;0.55;;;4.10;88.90;;;;;;5031784;28;19959;-62
2024/01/15 00:09:02;;;;;;;1.40;0.30;;;4.10;89.10;;;;;;5035376;28;20029;-61
2024/01/15 00:11:28;;;;;;;2.05;0.50;;;4.10;89.00;;;;;;5027314;28;20057;-62
2024/01/15 00:13:54;;;;;;;2.28;0.63;;;4.10;89.00;;;;;;5028044;28;20046;-61
2024/01/15 00:16:19;;;;;;;0.43;0.40;;;4.00;89.00;;;;;;5033836;28;20044;-62
2024/01/15 00:18:45;;;;;;;0.57;0.43;;;4.10;89.00;;;;;;5021918;28;20026;-62
2024/01/15 00:21:11;;;;;;;1.05;0.95;;;4.10;88.70;;;;;;5036603;28;20033;-61
2024/01/15 00:23:36;;;;;;;0.55;0.40;;;4.00;88.70;;;;;;5038594;28;20043;-62
2024/01/15 00:26:02;;;;;;;3.25;0.40;;;4.00;88.70;;;;;;5026303;28;20048;-62
2024/01/15 00:28:28;;;;;;;1.05;0.50;;;4.00;88.70;;;;;;5029104;28;20563;-61
2024/01/15 00:30:54;;;;;;;0.52;0.43;;;4.00;88.70;;;;;;5029505;28;20503;-61
2024/01/15 00:33:19;;;;;;;1.05;0.52;;;4.00;88.60;;;;;;5023370;28;20061;-62
2024/01/15 00:35:45;;;;;;;0.80;0.38;;;4.00;88.70;;;;;;5029167;28;20512;-62
2024/01/15 00:38:11;;;;;;;0.93;0.57;;;4.00;88.60;;;;;;5027719;28;20026;-61
2024/01/15 00:40:37;;;;;;;3.47;1.13;;;3.90;88.70;;;;;;5037312;28;20033;-62
2024/01/15 00:43:03;;;;;;;0.35;0.30;;;3.90;89.20;;;;;;5032758;28;20037;-61
2024/01/15 00:45:29;;;;;;;0.75;0.47;;;3.90;88.70;;;;;;5025136;28;20021;-62
2024/01/15 00:47:56;;;;;;;0.65;0.47;;;3.90;88.70;;;;;;5028202;28;20033;-61
2024/01/15 00:50:22;;;;;;;0.88;0.22;;;3.80;88.60;;;;;;5030364;28;20424;-62
2024/01/15 00:52:47;;;;;;;3.35;0.52;;;3.80;88.70;;;;;;5033280;28;20045;-61
2024/01/15 00:55:13;;;;;;;0.88;0.52;;;3.80;89.30;;;;;;5044249;28;20460;-62
2024/01/15 00:57:40;;;;;;;1.58;0.88;;;3.70;88.70;;;;;;5037219;28;20098;-62
2024/01/15 01:00:07;;;;;;;3.17;0.47;;;3.80;88.70;;;;;;5028536;28;20034;-61
2024/01/15 01:02:33;;;;;;;2.10;0.80;;;3.70;88.70;;;;;;5027361;28;20083;-61
2024/01/15 01:04:58;;;;;;;0.25;0.20;;;3.70;88.60;;;;;;5033244;28;20480;-62
2024/01/15 01:07:24;;;;;;;5.95;1.38;;;3.70;88.60;;;;;;5034681;28;20041;-61
2024/01/15 01:09:51;;;;;;;4.25;1.20;;;3.70;88.40;;;;;;5033039;28;20537;-62
2024/01/15 01:12:17;;;;;;;3.53;0.57;;;3.70;88.50;;;;;;5031018;28;20030;-62
2024/01/15 01:14:44;;;;;;;0.68;0.65;;;3.70;88.50;;;;;;5038665;28;20042;-62
2024/01/15 01:17:09;;;;;;;2.38;0.68;;;3.70;88.40;;;;;;5029613;28;20374;-63
2024/01/15 01:19:35;;;;;;;3.15;1.15;;;3.70;88.90;;;;;;5010517;28;20041;-64
2024/01/15 01:22:01;;;;;;;0.82;0.70;;;3.70;88.20;;;;;;5034040;28;20063;-62
2024/01/15 01:24:27;;;;;;;3.35;1.00;;;3.60;88.20;;;;;;5030471;28;20421;-66
2024/01/15 01:26:52;;;;;;;2.08;0.85;;;3.70;88.40;;;;;;5031504;28;20029;-65
2024/01/15 01:29:18;;;;;;;1.13;0.65;;;3.70;88.10;;;;;;5074495;28;20033;-66
2024/01/15 01:31:44;;;;;;;2.95;0.40;;;3.60;88.00;;;;;;5034576;28;20033;-65
2024/01/15 01:34:13;;;;;;;8.95;2.03;;;3.60;88.10;;;;;;5038720;28;20025;-64
2024/01/15 01:36:39;;;;;;;1.23;0.55;;;3.50;88.00;;;;;;5034399;28;20090;-64
2024/01/15 01:39:05;;;;;;;3.55;1.00;;;3.50;88.10;;;;;;5033220;28;20025;-65
2024/01/15 01:41:31;;;;;;;7.85;0.80;;;3.50;88.20;;;;;;5035817;28;20503;-62
2024/01/15 01:43:57;;;;;;;8.13;0.90;;;3.50;87.90;;;;;;5031715;28;20064;-62
2024/01/15 01:46:23;;;;;;;0.93;0.55;;;3.50;88.00;;;;;;5033044;28;20037;-63
2024/01/15 01:48:49;;;;;;;5.53;0.40;;;3.50;87.90;;;;;;5039351;28;20135;-62
2024/01/15 01:51:15;;;;;;;0.95;0.30;;;3.50;87.90;;;;;;5036087;28;20140;-62
2024/01/15 01:53:41;;;;;;;3.08;0.77;;;3.50;87.80;;;;;;5035918;28;20039;-63
2024/01/15 01:56:07;;;;;;;6.30;1.52;;;3.50;87.80;;;;;;5039487;28;20025;-63
2024/01/15 01:58:33;;;;;;;1.45;0.77;;;3.50;87.60;;;;;;5034119;28;20456;-63
2024/01/15 02:00:59;;;;;;;4.80;0.95;;;3.50;87.50;;;;;;5036918;28;20029;-62
2024/01/15 02:03:27;;;;;;;3.13;0.57;;;3.50;87.40;;;;;;5038707;28;20037;-63
2024/01/15 02:05:53;;;;;;;4.45;0.55;;;3.50;87.40;;;;;;5034520;28;20400;-63
2024/01/15 02:08:20;;;;;;;1.30;0.68;;;3.50;87.40;;;;;;5065139;28;20079;-63
2024/01/15 02:10:45;;;;;;;1.90;0.38;;;3.50;87.40;;;;;;5037567;28;20029;-63
2024/01/15 02:13:11;;;;;;;2.05;0.90;;;3.50;87.30;;;;;;5033027;28;20032;-63
2024/01/15 02:15:37;;;;;;;2.17;1.02;;;3.50;87.30;;;;;;5030540;28;20048;-63
2024/01/15 02:18:06;;;;;;;3.70;0.93;;;3.50;87.30;;;;;;5038594;28;20021;-63
2024/01/15 02:20:32;;;;;;;2.40;1.08;;;3.50;87.30;;;;;;5037227;28;20034;-63
2024/01/15 02:23:10;;;;;;;3.00;0.73;;;3.50;87.20;;;;;;5034597;28;20392;-63
2024/01/15 02:25:46;;;;;;;1.85;0.60;;;3.50;87.20;;;;;;5031388;28;20107;-63
2024/01/15 02:28:14;;;;;;;4.65;0.95;;;3.50;87.00;;;;;;5035940;28;20025;-61
2024/01/15 02:30:41;;;;;;;0.93;0.50;;;3.50;87.00;;;;;;5040057;28;20183;-62
2024/01/15 02:33:11;;;;;;;2.17;0.60;;;3.50;87.60;;;;;;5034235;28;20394;-62
2024/01/15 02:35:37;;;;;;;0.70;0.70;;;3.50;87.10;;;;;;5030880;28;20094;-62
2024/01/15 02:38:03;;;;;;;3.10;0.90;;;3.50;87.00;;;;;;5036415;28;20100;-62
2024/01/15 02:40:29;;;;;;;4.13;1.55;;;3.50;87.10;;;;;;5042809;28;20381;-62
2024/01/15 02:42:55;;;;;;;1.90;0.70;;;3.50;87.00;;;;;;5036662;28;20045;-62
2024/01/15 02:45:22;;;;;;;5.60;0.90;;;3.50;87.00;;;;;;5041507;28;20044;-62
2024/01/15 02:47:47;;;;;;;2.75;0.93;;;3.50;87.10;;;;;;5048673;28;20048;-61
2024/01/15 02:50:14;;;;;;;4.07;1.33;;;3.50;87.00;;;;;;5039264;28;20033;-61
2024/01/15 02:52:41;;;;;;;1.55;0.77;;;3.50;87.00;;;;;;5046430;28;20044;-62
2024/01/15 02:55:07;;;;;;;3.38;0.77;;;3.50;86.90;;;;;;5041680;28;20021;-61
2024/01/15 02:57:32;;;;;;;4.78;0.68;;;3.50;87.00;;;;;;5037403;28;20033;-62
2024/01/15 02:59:58;;;;;;;6.15;0.75;;;3.50;87.10;;;;;;5069221;28;20550;-61
2024/01/15 03:02:24;;;;;;;2.17;0.57;;;3.50;87.20;;;;;;5039969;28;20026;-62
2024/01/15 03:04:50;;;;;;;1.58;0.20;;;3.50;87.20;;;;;;5039166;28;20029;-62
2024/01/15 03:07:16;;;;;;;1.23;0.55;;;3.50;87.30;;;;;;5035796;28;20025;-62
2024/01/15 03:09:42;;;;;;;2.22;0.68;;;3.50;87.30;;;;;;5037647;28;20061;-63
2024/01/15 03:12:07;;;;;;;1.80;0.45;;;3.50;87.40;;;;;;5036528;28;20079;-63
2024/01/15 03:14:33;;;;;;;0.80;0.52;;;3.50;87.40;;;;;;5036356;28;20957;-63
2024/01/15 03:17:00;;;;;;;1.52;0.65;;;3.60;87.50;;;;;;5036880;28;20529;-63
2024/01/15 03:19:26;;;;;;;0.45;0.45;;;3.60;87.40;;;;;;5037923;28;20051;-62
2024/01/15 03:21:52;;;;;;;7.53;0.77;;;3.60;87.40;;;;;;5043194;28;20108;-62
2024/01/15 03:24:17;;;;;;;3.22;0.60;;;3.50;87.40;;;;;;5034912;28;20035;-63
2024/01/15 03:26:43;;;;;;;0.30;0.30;;;3.50;87.40;;;;;;5036304;28;20049;-63
2024/01/15 03:29:09;;;;;;;1.08;0.73;;;3.60;87.40;;;;;;5034994;28;20065;-63
2024/01/15 03:31:35;;;;;;;0.60;0.57;;;3.60;87.50;;;;;;5039225;28;20499;-63
2024/01/15 03:34:01;;;;;;;1.65;0.40;;;3.60;87.40;;;;;;5037422;28;20032;-66
2024/01/15 03:36:26;;;;;;;3.92;0.95;;;3.50;87.40;;;;;;5039670;28;20021;-66
2024/01/15 03:38:52;;;;;;;2.58;0.98;;;3.50;87.40;;;;;;5040777;28;20543;-67
2024/01/15 03:41:18;;;;;;;1.38;0.40;;;3.50;87.50;;;;;;5038884;28;20021;-63
2024/01/15 03:43:43;;;;;;;1.65;0.20;;;3.50;87.50;;;;;;5040805;28;20124;-61
2024/01/15 03:46:09;;;;;;;1.75;0.77;;;3.50;87.50;;;;;;5034146;28;20064;-62
2024/01/15 03:48:35;;;;;;;2.65;0.38;;;3.40;87.50;;;;;;5037890;28;20042;-64
2024/01/15 03:51:01;;;;;;;0.70;0.43;;;3.40;87.50;;;;;;5031678;28;20371;-63
2024/01/15 03:53:26;;;;;;;4.88;0.88;;;3.40;87.60;;;;;;5032289;28;20439;-63
2024/01/15 03:55:52;;;;;;;1.52;0.52;;;3.40;87.80;;;;;;5033696;28;20412;-63
2024/01/15 03:58:18;;;;;;;4.38;0.85;;;3.40;87.70;;;;;;5032938;28;20090;-62
2024/01/15 04:00:44;;;;;;;3.03;0.63;;;3.40;87.60;;;;;;5028032;28;20036;-62
2024/01/15 04:03:10;;;;;;;2.28;0.75;;;3.50;87.50;;;;;;5039702;28;20070;-62
2024/01/15 04:05:35;;;;;;;0.20;0.20;;;3.50;87.60;;;;;;5038818;28;20033;-63
2024/01/15 04:08:01;;;;;;;0.80;0.43;;;3.50;87.60;;;;;;5032310;28;20030;-62
2024/01/15 04:10:27;;;;;;;5.15;0.98;;;3.50;87.50;;;;;;5032549;28;20369;-62
2024/01/15 04:12:52;;;;;;;1.67;0.60;;;3.50;87.60;;;;;;5034047;28;20033;-61
2024/01/15 04:15:18;;;;;;;1.50;0.73;;;3.50;87.70;;;;;;5039511;28;20450;-62
2024/01/15 04:17:44;;;;;;;0.20;0.20;;;3.50;87.70;;;;;;5038720;28;20056;-62
2024/01/15 04:20:10;;;;;;;1.88;0.47;;;3.50;87.80;;;;;;5039087;28;20030;-62
2024/01/15 04:22:36;;;;;;;1.45;0.57;;;3.50;87.80;;;;;;5037531;28;20025;-62
2024/01/15 04:25:03;;;;;;;1.55;0.90;;;3.50;87.90;;;;;;5042128;28;20021;-62
2024/01/15 04:27:29;;;;;;;0.98;0.65;;;3.40;88.00;;;;;;5037790;28;20041;-62
2024/01/15 04:29:54;;;;;;;0.90;0.50;;;3.40;88.10;;;;;;5038519;28;20112;-62
2024/01/15 04:32:20;;;;;;;1.83;0.85;;;3.40;88.40;;;;;;5037242;28;20563;-62
2024/01/15 04:34:46;;;;;;;2.47;0.45;;;3.40;88.50;;;;;;5033167;28;20033;-62
2024/01/15 04:37:13;;;;;;;0.85;0.63;;;3.40;88.40;;;;;;5035197;28;20117;-62
2024/01/15 04:39:38;;;;;;;0.93;0.60;;;3.40;88.30;;;;;;5037067;28;20059;-62
2024/01/15 04:42:04;;;;;;;3.95;0.60;;;3.40;88.30;;;;;;5033111;28;20459;-62
2024/01/15 04:44:30;;;;;;;5.63;0.63;;;3.40;88.20;;;;;;5037805;28;20108;-62
2024/01/15 04:46:56;;;;;;;1.20;0.47;;;3.40;88.20;;;;;;5036668;28;20481;-62
2024/01/15 04:49:22;;;;;;;1.90;0.55;;;3.40;88.20;;;;;;5034656;28;20029;-62
2024/01/15 04:51:47;;;;;;;3.50;0.75;;;3.40;88.10;;;;;;5031134;28;20392;-61
2024/01/15 04:54:17;;;;;;;5.53;0.50;;;3.40;88.20;;;;;;5035555;28;20036;-61
2024/01/15 04:56:44;;;;;;;1.08;0.85;;;3.30;88.20;;;;;;5033064;28;20038;-62
2024/01/15 04:59:10;;;;;;;3.28;1.10;;;3.30;88.30;;;;;;5039335;28;20025;-61
2024/01/15 05:01:36;;;;;;;2.20;0.68;;;3.30;88.30;;;;;;5070785;28;20090;-61
2024/01/15 05:04:02;;;;;;;1.85;0.82;;;3.20;88.40;;;;;;5039086;28;20434;-62
2024/01/15 05:06:27;;;;;;;2.30;1.17;;;3.20;88.50;;;;;;5039817;28;20516;-61
2024/01/15 05:08:53;;;;;;;3.90;0.90;;;3.20;88.70;;;;;;5033807;28;20031;-61
2024/01/15 05:11:19;;;;;;;1.15;0.63;;;3.20;88.80;;;;;;5038048;28;20499;-62
2024/01/15 05:13:45;;;;;;;2.80;1.00;;;3.20;88.80;;;;;;5038425;28;20117;-62
2024/01/15 05:16:10;;;;;;;0.63;0.55;;;3.20;88.80;;;;;;5045577;28;20033;-62
2024/01/15 05:18:39;;;;;;;1.38;0.73;;;3.20;88.80;;;;;;5039055;28;20017;-61
2024/01/15 05:21:05;;;;;;;1.15;0.75;;;3.20;88.80;;;;;;5036216;28;20044;-61
2024/01/15 05:23:31;;;;;;;2.83;1.08;;;3.20;88.80;;;;;;5034989;28;20072;-61
2024/01/15 05:25:57;;;;;;;0.57;0.50;;;3.20;88.80;;;;;;5037064;28;20604;-61
2024/01/15 05:28:23;;;;;;;3.05;1.08;;;3.20;88.90;;;;;;5033895;28;20483;-61
2024/01/15 05:30:50;;;;;;;0.95;0.47;;;3.10;89.00;;;;;;5037273;28;20044;-62
2024/01/15 05:33:16;;;;;;;2.17;0.70;;;3.10;89.10;;;;;;5037801;28;20060;-62
2024/01/15 05:35:42;;;;;;;3.63;0.82;;;3.20;89.00;;;;;;5038460;28;20040;-62
2024/01/15 05:38:08;;;;;;;5.68;0.98;;;3.20;89.00;;;;;;5038390;28;20477;-61
2024/01/15 05:40:34;;;;;;;0.98;0.50;;;3.20;88.90;;;;;;5033503;28;20057;-60
2024/01/15 05:42:59;;;;;;;3.25;0.88;;;3.20;88.90;;;;;;5034328;28;20056;-60
2024/01/15 05:45:30;;;;;;;5.07;1.00;;;3.20;88.90;;;;;;5027487;28;20037;-61
2024/01/15 05:47:55;;;;;;;1.52;1.02;;;3.30;88.90;;;;;;5035832;28;20033;-62
2024/01/15 05:50:22;;;;;;;0.35;0.35;;;3.30;88.90;;;;;;5033574;28;20025;-62
2024/01/15 05:52:47;;;;;;;3.00;0.68;;;3.30;88.90;;;;;;5039082;28;20068;-62
2024/01/15 05:55:13;;;;;;;1.90;1.05;;;3.30;88.90;;;;;;5034623;28;20045;-62
2024/01/15 05:57:39;;;;;;;0.65;0.40;;;3.30;88.80;;;;;;5041463;28;20112;-62
2024/01/15 06:00:05;;;;;;;1.27;0.50;;;3.40;88.80;;;;;;5039267;28;20356;-62
2024/01/15 06:02:31;;;;;;;3.80;0.63;;;3.40;88.70;;;;;;5032440;28;20138;-62
2024/01/15 06:04:57;;;;;;;5.13;0.95;;;3.40;88.60;;;;;;5032732;28;20057;-62
2024/01/15 06:07:23;;;;;;;3.72;1.17;;;3.40;88.60;;;;;;5033429;28;20029;-62
2024/01/15 06:09:49;;;;;;;0.57;0.47;;;3.40;88.70;;;;;;5038471;28;20030;-62
2024/01/15 06:12:15;;;;;;;0.60;0.47;;;3.50;88.70;;;;;;5033823;28;20513;-61
2024/01/15 06:14:41;;;;;;;1.00;0.77;;;3.50;88.70;;;;;;5033847;28;20038;-61
2024/01/15 06:17:07;;;;;;;9.65;1.75;;;3.50;88.70;;;;;;5042765;28;20048;-61
2024/01/15 06:19:32;;;;;;;0.73;0.50;;;3.50;88.70;;;;;;5044043;28;20093;-61
2024/01/15 06:21:58;;;;;;;3.08;0.93;;;3.50;88.70;;;;;;5040038;28;20095;-61
2024/01/15 06:24:24;;;;;;;3.88;0.90;;;3.50;88.70;;;;;;5039932;28;20143;-61
2024/01/15 06:26:50;;;;;;;3.72;1.02;;;3.50;88.80;;;;;;5041898;28;20120;-61
2024/01/15 06:29:15;;;;;;;1.17;0.50;;;3.50;88.90;;;;;;5047892;28;20044;-61
2024/01/15 06:31:41;;;;;;;0.60;0.47;;;3.50;89.00;;;;;;5041601;28;20037;-63
2024/01/15 06:34:07;;;;;;;2.38;0.85;;;3.50;88.90;;;;;;5040836;28;20037;-63
2024/01/15 06:36:32;;;;;;;0.63;0.63;;;3.60;88.90;;;;;;5046861;28;20029;-63
2024/01/15 06:38:58;;;;;;;0.63;0.47;;;3.60;88.80;;;;;;5042321;28;20393;-62
2024/01/15 06:41:25;;;;;;;1.40;0.30;;;3.50;88.90;;;;;;5040565;28;20076;-60
2024/01/15 06:43:51;;;;;;;0.28;0.28;;;3.50;89.10;;;;;;5042669;28;20069;-61
2024/01/15 06:46:23;;;;;;;1.42;0.57;;;3.50;89.00;;;;;;5042198;28;20056;-61
2024/01/15 06:48:49;;;;;;;6.35;0.90;;;3.50;88.80;;;;;;5041051;28;20033;-61
2024/01/15 06:51:16;;;;;;;0.50;0.40;;;3.50;88.80;;;;;;5038657;28;20392;-61
2024/01/15 06:53:42;;;;;;;1.25;0.70;;;3.50;88.80;;;;;;5039311;28;20031;-61
2024/01/15 06:56:08;;;;;;;1.02;0.45;;;3.50;88.70;;;;;;5040685;28;20492;-61
2024/01/15 06:58:34;;;;;;;2.20;0.25;;;3.40;88.80;;;;;;5038164;28;20041;-63
2024/01/15 07:00:59;;;;;;;0.30;0.30;;;3.40;88.90;;;;;;5042774;28;20041;-63
2024/01/15 07:03:25;;;;;;;0.57;0.50;;;3.50;89.00;;;;;;5047268;28;20063;-63
2024/01/15 07:05:51;;;;;;;0.57;0.40;;;3.50;88.80;;;;;;5037598;28;20037;-63
2024/01/15 07:08:16;;;;;;;2.20;0.85;;;3.50;88.70;;;;;;5046145;28;20071;-63
2024/01/15 07:10:42;;;;;;;0.40;0.40;;;3.50;88.70;;;;;;5045056;28;20489;-63
2024/01/15 07:13:08;;;;;;;0.30;0.30;;;3.50;88.70;;;;;;5047702;28;20419;-63
2024/01/15 07:15:34;;;;;;;4.53;0.98;;;3.50;88.80;;;;;;5043265;28;20242;-63
2024/01/15 07:18:00;;;;;;;0.55;0.55;;;3.50;88.90;;;;;;5035621;28;20181;-63
2024/01/15 07:20:25;;;;;;;1.13;0.60;;;3.50;88.80;;;;;;5037238;28;20439;-63
2024/01/15 07:22:51;;;;;;;0.50;0.47;;;3.50;88.70;;;;;;5031894;28;20502;-63
2024/01/15 07:25:17;;;;;;;1.00;0.47;;;3.40;88.70;;;;;;5038481;28;20552;-63
2024/01/15 07:27:44;;;;;;;3.42;1.00;;;3.40;88.90;;;;;;5033709;28;20030;-63
2024/01/15 07:30:11;;;;;;;1.73;1.33;;;3.30;88.90;;;;;;5033093;28;20514;-63
2024/01/15 07:32:37;;;;;;;3.10;1.20;;;3.30;89.10;;;;;;5035938;28;20029;-63
2024/01/15 07:35:04;;;;;;;2.45;1.60;;;3.30;89.20;;;;;;5035222;28;20127;-63
2024/01/15 07:37:29;;;;;;;3.58;1.92;;;3.30;89.30;;;;;;5038263;28;20044;-61
2024/01/15 07:39:55;;;;;;;1.58;1.15;;;3.20;89.40;;;;;;5040582;28;20389;-61
2024/01/15 07:42:21;;;;;;;2.67;1.52;;;3.20;89.50;;;;;;5033273;28;20026;-61
2024/01/15 07:44:46;;;;;;;2.50;1.50;;;3.30;89.50;;;;;;5030705;28;20374;-63
2024/01/15 07:47:12;;;;;;;3.67;1.38;;;3.30;89.50;;;;;;5034888;28;20041;-63
2024/01/15 07:49:38;;;;;;;2.28;1.33;;;3.30;89.50;;;;;;5016416;28;20059;-63
2024/01/15 07:52:05;;;;;;;1.90;1.38;;;3.30;89.40;;;;;;5032388;28;20036;-63
2024/01/15 07:54:31;;;;;;;1.98;1.40;;;3.30;89.30;;;;;;5038425;28;20483;-63
2024/01/15 07:57:01;;;;;;;1.98;1.25;;;3.40;89.30;;;;;;5040666;28;20448;-61
2024/01/15 07:59:28;;;;;;;1.30;1.05;;;3.30;89.30;;;;;;5030810;28;20018;-63
2024/01/15 08:01:53;;;;;;;1.67;1.02;;;3.40;89.30;;;;;;5034111;28;20043;-63
2024/01/15 08:04:20;;;;;;;2.53;1.73;;;3.40;89.20;;;;;;5030037;28;20079;-63
2024/01/15 08:06:45;;;;;;;1.73;1.20;;;3.40;89.20;;;;;;5045519;28;20032;-62
2024/01/15 08:09:12;;;;;;;1.85;1.40;;;3.40;89.30;;;;;;5038886;28;20027;-63
2024/01/15 08:11:41;;;;;;;1.27;0.98;;;3.30;89.40;;;;;;5030347;28;20030;-60
2024/01/15 08:14:08;;;;;;;1.58;1.20;;;3.40;89.60;;;;;;5029749;28;20034;-60
2024/01/15 08:16:34;;;;;;;2.53;1.33;;;3.40;89.50;;;;;;5034045;28;20038;-60
2024/01/15 08:18:59;;;;;;;1.80;1.17;;;3.40;89.30;;;;;;5034132;28;20083;-61
2024/01/15 08:21:25;;;;;;;1.58;1.20;;;3.50;89.10;;;;;;5033874;28;20444;-61
2024/01/15 08:23:51;;;;;;;3.30;1.33;;;3.40;89.10;;;;;;5036533;28;20459;-61
2024/01/15 08:26:17;;;;;;;2.10;1.08;;;3.40;89.20;;;;;;5039903;28;20029;-61
2024/01/15 08:28:43;;;;;;;1.00;0.77;;;3.50;89.30;;;;;;5039217;28;20572;-61
2024/01/15 08:31:09;;;;;;;1.88;1.15;;;3.50;89.20;;;;;;5032598;28;20025;-61
2024/01/15 08:33:35;;;;;;;2.63;0.77;;;3.50;89.10;;;;;;5037711;28;20065;-61
2024/01/15 08:36:01;;;;;;;1.60;0.68;;;3.50;89.10;;;;;;5039260;28;20025;-61
2024/01/15 08:38:27;;;;;;;0.93;0.80;;;3.40;89.10;;;;;;5038737;28;20036;-64
2024/01/15 08:40:53;;;;;;;0.90;0.80;;;3.40;89.00;;;;;;5036360;28;20036;-64
2024/01/15 08:43:19;;;;;;;1.25;0.88;;;3.40;89.20;;;;;;5036387;28;20033;-64
2024/01/15 08:45:45;;;;;;;0.85;0.80;;;3.50;89.30;;;;;;5035031;28;20048;-64
2024/01/15 08:48:10;;;;;;;4.18;1.10;;;3.50;89.20;;;;;;5034323;28;20377;-64
2024/01/15 08:50:36;;;;;;;1.95;1.02;;;3.50;89.10;;;;;;5031758;28;20352;-64
2024/01/15 08:53:02;;;;;;;1.45;0.95;;;3.60;89.00;;;;;;5037770;28;20033;-64
2024/01/15 08:55:28;;;;;;;1.15;0.63;;;3.50;88.90;;;;;;5077153;28;20108;-64
2024/01/15 08:57:54;;;;;;;1.38;0.90;;;3.40;89.00;;;;;;5039408;28;20116;-64
2024/01/15 09:00:20;;;;;;;1.50;0.95;;;3.40;89.10;;;;;;5042351;28;20070;-64
2024/01/15 09:02:45;;;;;;;0.60;0.50;;;3.50;89.00;;;;;;5034830;28;20576;-64
2024/01/15 09:05:11;;;;;;;2.58;1.02;;;3.50;89.00;;;;;;5022362;28;20362;-61
2024/01/15 09:07:37;;;;;;;1.42;0.80;;;3.50;88.90;;;;;;5031429;28;20036;-62
2024/01/15 09:10:03;;;;;;;1.20;0.80;;;3.50;88.90;;;;;;5040873;28;20036;-62
2024/01/15 09:12:29;;;;;;;0.68;0.60;;;3.50;88.70;;;;;;5040044;28;20029;-62
2024/01/15 09:14:55;;;;;;;2.70;0.85;;;3.50;88.80;;;;;;5032255;28;20136;-62
2024/01/15 09:17:23;;;;;;;0.75;0.60;;;3.40;88.90;;;;;;5033507;28;20477;-62
2024/01/15 09:19:49;;;;;;;2.13;0.73;;;3.40;89.00;;;;;;5034588;28;20025;-62
2024/01/15 09:22:18;;;;;;;0.45;0.40;;;3.40;89.00;;;;;;5029581;28;20029;-62
2024/01/15 09:24:45;;;;;;;0.95;0.77;;;3.40;89.00;;;;;;5029616;28;20021;-62
2024/01/15 09:27:10;;;;;;;1.10;0.95;;;3.40;89.00;;;;;;5041924;28;20057;-62
2024/01/15 09:29:45;;;;;;;1.42;0.75;;;3.40;89.00;;;;;;5046890;28;20068;-62
2024/01/15 09:32:11;;;;;;;3.70;1.30;;;3.50;89.00;;;;;;5031303;28;20026;-62
2024/01/15 09:34:37;;;;;;;1.27;0.93;;;3.50;88.90;;;;;;5029877;28;20056;-64
2024/01/15 09:37:04;;;;;;;1.35;1.13;;;3.60;89.00;;;;;;5034135;28;20033;-64
2024/01/15 09:39:30;;;;;;;1.15;0.80;;;3.50;88.90;;;;;;5035128;28;20032;-63
2024/01/15 09:41:57;;;;;;;1.23;0.82;;;3.60;88.90;;;;;;5032591;28;20029;-64
2024/01/15 09:44:23;;;;;;;0.85;0.75;;;3.60;88.90;;;;;;5037326;28;20037;-64
2024/01/15 09:46:52;;;;;;;2.38;0.98;;;3.70;88.80;;;;;;5033396;28;20160;-63
2024/01/15 09:49:19;;;;;;;1.67;0.95;;;3.70;88.60;;;;;;5033495;28;20029;-64
2024/01/15 09:51:45;;;;;;;5.20;1.10;;;3.80;88.60;;;;;;5033140;28;20033;-64
2024/01/15 09:54:13;;;;;;;0.63;0.63;;;3.80;88.50;;;;;;5031576;28;20040;-62
2024/01/15 09:56:39;;;;;;;1.40;1.00;;;4.00;88.50;;;;;;5029747;28;20457;-62
2024/01/15 09:59:05;;;;;;;3.15;1.10;;;4.10;88.20;;;;;;5030582;28;20067;-62
2024/01/15 10:01:32;;;;;;;2.53;1.10;;;4.10;88.40;;;;;;5031072;28;20109;-62
2024/01/15 10:03:58;;;;;;;1.30;1.02;;;4.10;87.70;;;;;;5043424;28;20089;-64
2024/01/15 10:06:27;;;;;;;1.08;0.75;;;4.00;87.70;;;;;;5029466;28;20040;-62
2024/01/15 10:08:56;;;;;;;0.85;0.70;;;4.00;87.60;;;;;;5028707;28;20155;-62
2024/01/15 10:11:22;;;;;;;2.47;1.20;;;3.90;87.70;;;;;;5017004;28;20068;-62
2024/01/15 10:13:52;;;;;;;1.98;0.90;;;3.90;87.70;;;;;;5028088;28;20038;-64
2024/01/15 10:16:17;;;;;;;2.15;0.90;;;3.80;87.50;;;;;;5028601;28;20037;-62
2024/01/15 10:18:43;;;;;;;0.22;0.22;;;3.80;87.70;;;;;;5026255;28;20029;-62
2024/01/15 10:21:09;;;;;;;1.13;0.40;;;3.90;87.90;;;;;;5032781;28;20029;-62
2024/01/15 10:23:36;;;;;;;2.72;0.70;;;4.00;87.80;;;;;;5031910;28;20048;-62
2024/01/15 10:26:02;;;;;;;0.65;0.52;;;4.00;87.50;;;;;;5033679;28;20041;-62
2024/01/15 10:28:30;;;;;;;0.50;0.30;;;4.20;87.40;;;;;;5024922;28;20712;-64
2024/01/15 10:30:57;;;;;;;1.17;0.82;;;4.40;86.80;;;;;;5028558;28;20111;-64
2024/01/15 10:33:26;;;;;;;0.35;0.30;;;4.30;86.50;;;;;;5031428;28;20472;-64
2024/01/15 10:35:59;;;;;;;0.95;0.63;;;4.20;86.30;;;;;;5022958;28;20052;-66
2024/01/15 10:38:26;;;;;;;0.82;0.40;;;4.00;86.40;;;;;;5028561;28;20033;-63
2024/01/15 10:40:52;;;;;;;0.90;0.65;;;4.00;86.90;;;;;;5032225;28;20029;-64
2024/01/15 10:43:18;;;;;;;1.63;0.57;;;4.00;87.10;;;;;;5029009;28;20056;-64
2024/01/15 10:45:48;;;;;;;1.27;0.73;;;4.10;87.20;;;;;;5024936;28;20033;-62
2024/01/15 10:48:17;;;;;;;0.65;0.40;;;4.60;86.80;;;;;;5026291;28;20044;-62
2024/01/15 10:50:44;;;;;;;1.23;0.57;;;4.90;85.10;;;;;;5033618;28;20025;-62
2024/01/15 10:53:12;;;;;;;0.80;0.40;;;5.30;84.70;;;;;;5024777;28;20032;-62
2024/01/15 10:55:39;;;;;;;0.60;0.38;;;5.50;83.50;;;;;;5028651;28;20190;-64
2024/01/15 10:58:07;;;;;;;3.80;0.68;;;5.40;83.30;;;;;;5025602;28;20036;-64
2024/01/15 11:00:37;;;;;;;1.33;0.70;;;5.50;84.50;;;;;;5027429;28;20152;-65
2024/01/15 11:03:05;;;;;;;0.85;0.50;;;7.00;83.80;;;;;;5029745;28;20026;-64
2024/01/15 11:05:53;;;;;;;1.42;0.75;;;7.80;77.90;;;;;;5028595;28;20036;-64
2024/01/15 11:08:18;;;;;;;2.08;0.80;;;7.10;76.80;;;;;;5029277;28;20017;-62
2024/01/15 11:10:51;;;;;;;1.42;0.40;;;6.30;78.90;;;;;;5028860;28;20048;-62
2024/01/15 11:13:21;;;;;;;2.72;0.77;;;5.60;80.20;;;;;;5029303;28;20029;-62
2024/01/15 11:16:06;;;;;;;1.83;0.60;;;5.20;81.80;;;;;;5028139;28;20049;-62
2024/01/15 11:18:55;;;;;;;5.88;0.73;;;4.90;83.00;;;;;;5029924;28;20442;-61
2024/01/15 11:21:21;;;;;;;0.88;0.75;;;4.60;83.70;;;;;;5031379;28;20048;-64
2024/01/15 11:23:50;;;;;;;2.75;1.02;;;4.60;84.90;;;;;;5037005;28;20022;-62
2024/01/15 11:26:40;;;;;;;1.13;0.65;;;5.60;84.80;;;;;;5032945;28;20056;-64
2024/01/15 11:29:08;;;;;;;1.63;0.82;;;6.30;80.60;;;;;;5023213;28;20029;-62
2024/01/15 11:31:39;;;;;;;2.30;0.40;;;6.00;80.30;;;;;;5032331;28;20036;-62
2024/01/15 11:34:10;;;;;;;1.17;0.60;;;5.70;81.10;;;;;;5029533;28;20116;-61
2024/01/15 11:36:51;;;;;;;2.63;0.57;;;5.40;81.90;;;;;;5025804;28;20021;-62
2024/01/15 11:39:30;;;;;;;1.08;0.68;;;5.10;82.60;;;;;;5035288;28;20025;-62
2024/01/15 11:42:01;;;;;;;1.65;1.00;;;4.90;83.30;;;;;;5026273;28;20052;-62
2024/01/15 11:44:26;;;;;;;0.77;0.63;;;5.20;84.80;;;;;;5037616;28;20041;-62
2024/01/15 11:46:58;;;;;;;1.00;0.80;;;6.20;83.30;;;;;;5033821;28;20584;-62
2024/01/15 11:49:33;;;;;;;2.45;0.80;;;6.80;80.60;;;;;;5034126;28;20071;-62
2024/01/15 11:52:01;;;;;;;1.65;0.70;;;6.70;78.80;;;;;;5036004;28;20471;-64
2024/01/15 11:54:32;;;;;;;4.68;0.68;;;6.60;80.00;;;;;;5028707;28;20033;-64
2024/01/15 11:57:02;;;;;;;3.42;0.65;;;7.50;80.40;;;;;;5031974;28;20026;-64
2024/01/15 11:59:28;;;;;;;1.50;0.85;;;8.80;77.10;;;;;;5031802;28;20056;-64
2024/01/15 12:01:54;;;;;;;0.50;0.50;;;9.20;73.20;;;;;;5039278;28;20419;-61
2024/01/15 12:04:21;;;;;;;2.50;0.60;;;9.20;72.60;;;;;;5033782;28;20029;-64
2024/01/15 12:06:47;;;;;;;2.63;1.00;;;9.90;71.90;;;;;;5028783;28;20041;-64
2024/01/15 12:09:12;;;;;;;2.58;1.02;;;11.40;69.70;;;;;;5034942;28;20030;-64
2024/01/15 12:11:41;;;;;;;1.60;0.60;;;12.80;64.90;;;;;;5034007;28;20037;-64
2024/01/15 12:14:08;;;;;;;2.50;0.90;;;13.50;62.50;;;;;;5031989;28;20450;-62
2024/01/15 12:16:37;;;;;;;2.22;0.82;;;14.50;60.90;;;;;;5028200;28;20050;-64
2024/01/15 12:19:04;;;;;;;3.05;1.20;;;15.40;58.20;;;;;;5047512;28;20042;-64
2024/01/15 12:21:29;;;;;;;1.67;0.68;;;15.90;54.40;;;;;;5033197;28;20437;-64
2024/01/15 12:23:56;;;;;;;2.47;0.88;;;16.30;54.40;;;;;;5030060;28;20171;-64
2024/01/15 12:26:22;;;;;;;2.50;0.60;;;16.90;51.60;;;;;;5025728;28;20034;-62
2024/01/15 12:28:51;;;;;;;1.63;0.60;;;16.60;52.00;;;;;;5035486;28;20033;-61
2024/01/15 12:31:16;;;;;;;1.30;0.95;;;16.20;52.60;;;;;;5061751;28;20557;-61
2024/01/15 12:33:42;;;;;;;0.88;0.50;;;16.40;53.00;;;;;;5039019;28;20037;-60
2024/01/15 12:36:08;;;;;;;1.38;0.77;;;15.70;52.30;;;;;;5037411;28;20040;-60
2024/01/15 12:38:34;;;;;;;2.55;0.88;;;13.80;53.50;;;;;;5034911;28;20452;-62
2024/01/15 12:41:01;;;;;;;1.33;0.63;;;11.90;57.70;;;;;;5033114;28;20026;-62
2024/01/15 12:43:27;;;;;;;0.22;0.22;;;10.30;61.10;;;;;;5029554;28;20116;-62
2024/01/15 12:45:53;;;;;;;1.45;0.50;;;9.10;64.10;;;;;;5030892;28;20029;-62
2024/01/15 12:48:19;;;;;;;0.38;0.30;;;8.20;66.40;;;;;;5033241;28;20025;-62
2024/01/15 12:50:45;;;;;;;0.30;0.20;;;7.40;68.20;;;;;;5030890;28;20034;-62
2024/01/15 12:53:11;;;;;;;0.20;0.20;;;6.90;70.00;;;;;;5031521;28;20026;-62
2024/01/15 12:55:36;;;;;;;2.85;0.57;;;6.50;71.30;;;;;;5034578;28;20049;-62